Time;durP1;ratioP1;P1;durP2;ratioP2;P2;SDS_P1;SDS_P2;PMS_P1;PMS_P2;Temp;Humidity;BMP_temperature;BMP_pressure;BME280_temperature;BME280_humidity;BME280_pressure;Samples;Min_cycle;Max_cycle;Signal;HPM_P1;HPM_P2
2022/04/17 00:00:39;;;;;;;;;;;;;;;5.13;86.41;99328.89;1778129;80;24536;-86
2022/04/17 00:03:07;;;;;;;;;;;;;;;5.14;86.51;99321.52;1779299;80;22919;-83
2022/04/17 00:05:34;;;;;;;;;;;;;;;5.18;86.65;99327.02;1778793;80;26201;-86
2022/04/17 00:08:00;;;;;;;;;;;;;;;5.13;86.65;99323.70;1776945;80;25700;-83
2022/04/17 00:10:27;;;;;;;;;;;;;;;4.98;86.46;99330.26;1776448;80;20826;-83
2022/04/17 00:12:53;;;;;;;;;;;;;;;4.91;86.41;99322.75;1778713;79;24559;-86
2022/04/17 00:15:19;;;;;;;;;;;;;;;4.89;86.46;99322.79;1777528;80;20232;-83
2022/04/17 00:17:45;;;;;;;;;;;;;;;4.91;86.52;99319.67;1779149;80;25993;-86
2022/04/17 00:20:15;;;;;;;;;;;;;;;4.92;86.58;99327.86;1778327;80;24603;-86
2022/04/17 00:22:42;;;;;;;;;;;;;;;4.85;86.56;99325.54;1774621;80;20220;-86
2022/04/17 00:25:09;;;;;;;;;;;;;;;4.80;86.58;99330.03;1774302;80;24611;-86
2022/04/17 00:27:35;;;;;;;;;;;;;;;4.70;86.52;99325.56;1777249;80;22039;-83
2022/04/17 00:30:03;;;;;;;;;;;;;;;4.70;86.59;99329.45;1773451;80;26036;-83
2022/04/17 00:32:31;;;;;;;;;;;;;;;4.72;86.67;99328.97;1775202;80;24600;-85
2022/04/17 00:34:58;;;;;;;;;;;;;;;4.73;86.79;99333.70;1776066;80;20137;-83
2022/04/17 00:37:24;;;;;;;;;;;;;;;4.73;86.86;99331.97;1772317;80;24725;-83
2022/04/17 00:39:51;;;;;;;;;;;;;;;4.70;86.92;99332.05;1776460;80;22016;-85
2022/04/17 00:42:17;;;;;;;;;;;;;;;4.68;86.91;99327.82;1780105;80;26067;-83
2022/04/17 00:44:43;;;;;;;;;;;;;;;4.57;86.83;99334.20;1777608;80;24488;-83
2022/04/17 00:47:14;;;;;;;;;;;;;;;4.50;86.76;99333.13;1778511;80;20253;-85
2022/04/17 00:49:37;;;;;;;;;;;;;;;4.40;86.67;99326.09;1776817;80;24239;-85
2022/04/17 00:52:04;;;;;;;;;;;;;;;4.34;86.64;99326.27;1779122;80;22119;-85
2022/04/17 00:54:31;;;;;;;;;;;;;;;4.30;86.66;99326.42;1772584;80;25902;-83
2022/04/17 00:56:58;;;;;;;;;;;;;;;4.15;86.54;99332.44;1771904;80;24515;-84
2022/04/17 00:59:24;;;;;;;;;;;;;;;4.05;86.46;99326.28;1773528;80;20584;-83
2022/04/17 01:01:50;;;;;;;;;;;;;;;3.94;86.41;99325.30;1777517;80;24539;-84
2022/04/17 01:04:16;;;;;;;;;;;;;;;3.91;86.48;99322.81;1775052;80;20223;-86
2022/04/17 01:06:42;;;;;;;;;;;;;;;3.81;86.49;99321.39;1776611;80;21015;-84
2022/04/17 01:09:08;;;;;;;;;;;;;;;3.76;86.58;99317.61;1776424;80;24424;-84
2022/04/17 01:11:40;;;;;;;;;;;;;;;3.66;86.57;99320.50;1780510;80;20241;-87
2022/04/17 01:14:08;;;;;;;;;;;;;;;3.61;86.65;99318.04;1773999;80;24527;-86
2022/04/17 01:16:36;;;;;;;;;;;;;;;3.59;86.81;99319.84;1778258;80;22629;-83
2022/04/17 01:19:10;;;;;;;;;;;;;;;3.60;86.97;99325.88;1772850;80;25975;-82
2022/04/17 01:21:31;;;;;;;;;;;;;;;3.61;87.18;99320.63;1779118;80;24550;-83
2022/04/17 01:26:56;;;;;;;;;;;;;;;3.44;87.30;99315.06;1772608;80;24605;-82
2022/04/17 01:29:27;;;;;;;;;;;;;;;3.43;87.42;99316.42;1775788;80;21975;-83
2022/04/17 01:31:53;;;;;;;;;;;;;;;3.31;87.51;99309.39;1774878;80;26026;-82
2022/04/17 01:34:21;;;;;;;;;;;;;;;3.30;87.60;99308.13;1776975;80;24547;-83
2022/04/17 01:36:48;;;;;;;;;;;;;;;3.26;87.70;99302.64;1770007;80;20432;-82
2022/04/17 01:39:14;;;;;;;;;;;;;;;3.21;87.81;99300.18;1776164;80;24624;-83
2022/04/17 01:41:40;;;;;;;;;;;;;;;3.13;87.85;99299.95;1775470;80;22115;-83
2022/04/17 01:44:06;;;;;;;;;;;;;;;3.10;87.99;99300.05;1779773;80;21100;-82
2022/04/17 01:46:33;;;;;;;;;;;;;;;3.10;88.19;99298.77;1776018;80;24455;-83
2022/04/17 01:48:59;;;;;;;;;;;;;;;3.01;88.29;99290.78;1771783;80;21022;-83
2022/04/17 01:51:25;;;;;;;;;;;;;;;2.88;88.33;99295.43;1778101;80;24470;-83
2022/04/17 01:53:53;;;;;;;;;;;;;;;2.82;88.41;99290.41;1777624;80;20843;-83
2022/04/17 01:56:19;;;;;;;;;;;;;;;2.84;88.60;99292.50;1778286;80;26208;-83
2022/04/17 01:58:45;;;;;;;;;;;;;;;2.85;88.83;99299.37;1777871;80;24377;-83
2022/04/17 02:01:11;;;;;;;;;;;;;;;2.84;89.08;99289.91;1777304;79;20818;-86
2022/04/17 02:03:37;;;;;;;;;;;;;;;2.83;89.25;99292.12;1775994;80;20262;-86
2022/04/17 02:06:03;;;;;;;;;;;;;;;2.82;89.43;99299.45;1777689;80;22112;-83
2022/04/17 02:08:31;;;;;;;;;;;;;;;2.82;89.63;99291.70;1779551;80;26150;-83
2022/04/17 02:10:57;;;;;;;;;;;;;;;2.78;89.77;99295.23;1779382;80;25212;-86
2022/04/17 02:13:23;;;;;;;;;;;;;;;2.71;89.85;99296.29;1779649;80;20244;-83
2022/04/17 02:15:53;;;;;;;;;;;;;;;2.74;90.06;99294.91;1776730;80;24596;-82
2022/04/17 02:18:18;;;;;;;;;;;;;;;2.76;90.27;99292.30;1775796;80;22089;-83
2022/04/17 02:20:44;;;;;;;;;;;;;;;2.71;90.43;99288.53;1779168;79;26069;-82
2022/04/17 02:23:10;;;;;;;;;;;;;;;2.67;90.53;99286.92;1779119;80;24497;-82
2022/04/17 02:25:36;;;;;;;;;;;;;;;2.62;90.64;99291.33;1776794;79;20233;-85
2022/04/17 02:28:08;;;;;;;;;;;;;;;2.58;90.72;99292.73;1778831;80;20755;-85
2022/04/17 02:30:34;;;;;;;;;;;;;;;2.57;90.87;99284.13;1771602;80;22130;-82
2022/04/17 02:33:00;;;;;;;;;;;;;;;2.59;91.09;99282.37;1774822;80;26004;-82
2022/04/17 02:35:26;;;;;;;;;;;;;;;2.57;91.25;99285.42;1777288;80;24413;-83
2022/04/17 02:37:56;;;;;;;;;;;;;;;2.61;91.51;99281.91;1771889;80;20410;-83
2022/04/17 02:40:22;;;;;;;;;;;;;;;2.66;91.83;99273.59;1773154;80;24545;-85
2022/04/17 02:42:48;;;;;;;;;;;;;;;2.70;92.04;99279.52;1766451;80;21959;-82
2022/04/17 02:45:14;;;;;;;;;;;;;;;2.72;92.26;99271.30;1742846;80;21008;-82
2022/04/17 02:47:42;;;;;;;;;;;;;;;2.78;92.46;99275.03;1755106;80;24515;-82
2022/04/17 02:50:10;;;;;;;17.82;9.93;;;;;;;2.76;92.64;99273.77;1747819;80;43377;-82
2022/04/17 02:52:37;;;;;;;17.00;8.43;;;;;;;2.62;92.59;99275.81;1746796;80;42863;-82
2022/04/17 02:55:08;;;;;;;18.35;9.60;;;;;;;2.54;92.60;99277.76;1739194;80;42893;-83
2022/04/17 02:57:35;;;;;;;18.55;9.45;;;;;;;2.37;92.52;99274.28;1743219;80;42890;-83
2022/04/17 03:00:03;;;;;;;18.17;9.48;;;;;;;2.30;92.54;99277.03;1731466;80;42888;-83
2022/04/17 03:08:13;;;;;;;23.10;10.45;;;;;;;2.33;93.10;99280.84;1737625;80;44081;-83
2022/04/17 03:10:44;;;;;;;18.05;9.58;;;;;;;2.35;93.29;99280.35;1738448;80;42876;-82
2022/04/17 03:13:10;;;;;;;26.37;11.73;;;;;;;2.37;93.48;99282.03;1744196;80;43796;-82
2022/04/17 03:15:38;;;;;;;23.07;12.50;;;;;;;2.36;93.64;99280.33;1736051;80;44160;-82
2022/04/17 03:18:08;;;;;;;15.08;9.78;;;;;;;2.29;93.72;99281.34;1744297;80;42899;-82
2022/04/17 03:20:35;;;;;;;17.57;9.28;;;;;;;2.28;93.85;99279.67;1748026;80;42907;-82
2022/04/17 03:23:03;;;;;;;23.52;13.32;;;;;;;2.29;94.00;99284.39;1752653;80;44146;-82
2022/04/17 03:25:29;;;;;;;18.80;12.53;;;;;;;2.31;94.17;99287.77;1749203;80;43429;-82
2022/04/17 03:27:57;;;;;;;19.17;12.33;;;;;;;2.28;94.28;99282.25;1739112;80;43389;-82
2022/04/17 03:30:24;;;;;;;23.38;11.30;;;;;;;2.22;94.36;99286.27;1749012;80;44163;-85
2022/04/17 03:32:51;;;;;;;21.87;10.70;;;;;;;2.17;94.39;99291.13;1736952;80;44052;-84
2022/04/17 03:35:18;;;;;;;20.52;9.40;;;;;;;2.17;94.53;99292.41;1746911;80;42967;-84
2022/04/17 03:37:45;;;;;;;19.05;10.82;;;;;;;2.15;94.66;99285.13;1735491;80;43406;-85
2022/04/17 03:40:13;;;;;;;18.12;9.75;;;;;;;2.08;94.68;99293.45;1735142;80;43239;-82
2022/04/17 03:42:41;;;;;;;23.27;11.08;;;;;;;2.02;94.73;99291.00;1739692;80;44103;-83
2022/04/17 03:45:11;;;;;;;20.23;11.40;;;;;;;1.95;94.77;99292.03;1745641;80;43732;-82
2022/04/17 03:47:39;;;;;;;19.30;11.05;;;;;;;1.94;94.92;99296.78;1729284;80;43468;-82
2022/04/17 03:50:06;;;;;;;20.27;11.45;;;;;;;2.00;95.17;99293.63;1742165;80;43779;-81
2022/04/17 03:52:47;;;;;;;18.85;10.40;;;;;;;2.01;95.37;99297.92;1737337;80;43446;-85
2022/04/17 03:55:13;;;;;;;20.43;11.08;;;;;;;2.01;95.57;99295.78;1744680;80;43424;-81
2022/04/17 03:57:40;;;;;;;21.37;11.03;;;;;;;2.02;95.82;99290.56;1736205;80;44113;-81
2022/04/17 04:00:09;;;;;;;21.15;10.60;;;;;;;1.99;95.97;99294.52;1738920;80;43750;-82
2022/04/17 04:02:36;;;;;;;20.20;10.48;;;;;;;2.03;96.17;99292.70;1738200;80;43816;-82
2022/04/17 04:05:05;;;;;;;18.27;11.65;;;;;;;2.09;96.44;99289.98;1730259;80;43429;-84
2022/04/17 04:07:32;;;;;;;18.92;10.38;;;;;;;2.08;96.63;99290.42;1742344;80;43454;-84
2022/04/17 04:09:58;;;;;;;44.98;18.90;;;;;;;2.09;96.83;99288.26;1739561;80;44144;-82
2022/04/17 04:12:24;;;;;;;29.12;14.15;;;;;;;2.09;97.06;99285.68;1746687;80;43734;-81
2022/04/17 04:14:50;;;;;;;20.15;11.57;;;;;;;2.16;97.33;99285.55;1750978;80;43697;-82
2022/04/17 04:17:17;;;;;;;24.43;11.28;;;;;;;2.19;97.56;99286.75;1743461;80;44140;-85
2022/04/17 04:19:43;;;;;;;17.45;10.50;;;;;;;2.19;97.73;99285.02;1738822;80;43477;-81
2022/04/17 04:22:09;;;;;;;17.15;10.03;;;;;;;2.24;98.02;99279.75;1739187;80;43174;-82
2022/04/17 04:24:36;;;;;;;18.15;9.08;;;;;;;2.28;98.23;99286.13;1746250;80;42899;-85
2022/04/17 04:29:48;;;;;;;17.00;9.10;;;;;;;2.31;98.65;99289.91;1740680;80;42887;-84
2022/04/17 04:32:14;;;;;;;16.40;8.90;;;;;;;2.39;98.96;99288.46;1739857;80;42925;-82
2022/04/17 04:34:41;;;;;;;14.80;8.65;;;;;;;2.47;99.23;99290.41;1756680;80;42747;-85
2022/04/17 04:37:07;;;;;;;14.80;8.48;;;;;;;2.50;99.43;99294.23;1728964;80;42759;-83
2022/04/17 04:39:40;;;;;;;17.12;9.55;;;;;;;2.56;99.66;99292.79;1731701;81;42875;-83
2022/04/17 04:42:08;;;;;;;16.50;8.88;;;;;;;2.60;99.84;99293.55;1727109;81;42863;-82
2022/04/17 04:44:34;;;;;;;16.15;8.75;;;;;;;2.61;99.99;99296.55;1772210;80;42924;-82
2022/04/17 04:47:00;;;;;;;19.40;9.10;;;;;;;2.59;100.00;99294.44;1771822;80;42972;-82
2022/04/17 04:49:29;;;;;;;17.85;9.15;;;;;;;2.57;100.00;99297.48;1769801;80;42888;-84
2022/04/17 04:51:57;;;;;;;18.17;9.23;;;;;;;2.56;100.00;99304.42;1768362;80;42884;-83
2022/04/17 04:54:23;;;;;;;20.85;8.93;;;;;;;2.57;100.00;99301.36;1770378;80;42860;-83
2022/04/17 04:56:50;;;;;;;16.50;8.45;;;;;;;2.58;100.00;99292.29;1771684;80;42920;-83
2022/04/17 04:59:17;;;;;;;20.08;9.73;;;;;;;2.58;100.00;99300.05;1772118;80;42912;-85
2022/04/17 05:01:43;;;;;;;20.97;10.03;;;;;;;2.61;100.00;99300.42;1770930;80;43350;-85
2022/04/17 05:04:09;;;;;;;17.35;10.88;;;;;;;2.63;100.00;99312.41;1772037;80;43460;-82
2022/04/17 05:06:36;;;;;;;23.47;14.30;;;;;;;2.69;100.00;99309.68;1769590;80;44107;-82
2022/04/17 05:09:04;;;;;;;23.02;15.45;;;;;;;2.70;100.00;99314.41;1772006;80;44091;-86
2022/04/17 05:11:31;;;;;;;33.42;21.93;;;;;;;2.74;100.00;99322.05;1772423;80;43066;-83
2022/04/17 05:13:57;;;;;;;33.53;21.23;;;;;;;2.73;100.00;99320.78;1767980;80;43075;-83
2022/04/17 05:16:24;;;;;;;34.20;20.97;;;;;;;2.75;100.00;99317.73;1765715;80;45059;-82
2022/04/17 05:19:08;;;;;;;34.08;20.82;;;;;;;2.77;100.00;99319.41;1771164;80;43065;-82
2022/04/17 05:21:21;;;;;;;28.40;17.95;;;;;;;2.79;100.00;99326.66;1767177;80;43732;-83
2022/04/17 05:23:47;;;;;;;21.73;13.60;;;;;;;2.83;100.00;99320.99;1771849;80;44080;-85
2022/04/17 05:26:13;;;;;;;23.87;13.60;;;;;;;2.93;100.00;99327.63;1770361;80;44095;-82
2022/04/17 05:28:39;;;;;;;23.40;11.90;;;;;;;2.99;100.00;99324.89;1769203;80;44154;-84
2022/04/17 05:31:05;;;;;;;21.12;11.50;;;;;;;3.06;100.00;99322.97;1772707;80;44165;-84
2022/04/17 05:33:32;;;;;;;24.75;12.70;;;;;;;3.07;100.00;99322.95;1772871;80;45040;-84
2022/04/17 05:35:58;;;;;;;30.10;13.45;;;;;;;3.14;100.00;99319.32;1770446;80;43863;-82
2022/04/17 05:38:24;;;;;;;21.70;12.37;;;;;;;3.25;100.00;99321.63;1769348;80;45994;-82
2022/04/17 05:40:52;;;;;;;23.30;11.93;;;;;;;3.35;100.00;99323.93;1771303;80;45891;-82
2022/04/17 05:43:19;;;;;;;19.73;10.60;;;;;;;3.41;100.00;99316.45;1770198;80;45330;-83
2022/04/17 05:45:48;;;;;;;20.27;10.93;;;;;;;3.48;100.00;99321.88;1769946;80;44242;-83
2022/04/17 05:48:18;;;;;;;20.00;10.55;;;;;;;3.56;100.00;99317.33;1768203;80;43484;-82
2022/04/17 05:50:44;;;;;;;20.80;10.32;;;;;;;3.66;100.00;99320.05;1773944;80;43397;-85
2022/04/17 05:53:11;;;;;;;32.33;11.45;;;;;;;3.69;100.00;99326.45;1768215;80;47623;-82
2022/04/17 05:55:39;;;;;;;16.42;9.70;;;;;;;3.75;100.00;99321.55;1771042;80;43188;-85
2022/04/17 05:58:06;;;;;;;19.05;10.68;;;;;;;3.79;100.00;99326.59;1767641;80;43425;-82
2022/04/17 06:00:32;;;;;;;18.00;9.90;;;;;;;3.82;100.00;99326.94;1772282;80;28108;-82
2022/04/17 06:02:59;;;;;;;;;;;;;;;3.93;100.00;99322.30;1774652;80;26115;-83
2022/04/17 06:05:25;;;;;;;;;;;;;;;3.99;100.00;99330.34;1772243;80;24678;-84
2022/04/17 06:07:51;;;;;;;;;;;;;;;4.06;100.00;99325.39;1776826;80;20249;-81
2022/04/17 06:10:17;;;;;;;;;;;;;;;4.12;100.00;99330.40;1772066;80;24593;-82
2022/04/17 06:12:43;;;;;;;;;;;;;;;4.11;100.00;99325.66;1773100;80;22032;-81
2022/04/17 06:15:11;;;;;;;;;;;;;;;4.17;100.00;99332.41;1772004;80;25560;-84
2022/04/17 06:17:42;;;;;;;;;;;;;;;4.25;100.00;99327.01;1774607;79;24109;-82
2022/04/17 06:20:09;;;;;;;;;;;;;;;4.24;100.00;99327.45;1774904;80;20868;-82
2022/04/17 06:22:36;;;;;;;;;;;;;;;4.26;100.00;99332.12;1771119;80;24633;-82
2022/04/17 06:25:04;;;;;;;;;;;;;;;4.35;100.00;99331.86;1775283;80;21946;-82
2022/04/17 06:27:41;;;;;;;;;;;;;;;4.46;100.00;99338.02;1774925;80;27000;-84
2022/04/17 06:30:13;;;;;;;;;;;;;;;4.55;100.00;99337.72;1771429;80;24495;-82
2022/04/17 06:32:41;;;;;;;;;;;;;;;4.50;100.00;99339.16;1770448;80;20219;-82
2022/04/17 06:35:08;;;;;;;;;;;;;;;4.56;100.00;99339.42;1773453;80;24540;-82
2022/04/17 06:37:54;;;;;;;;;;;;;;;4.68;100.00;99337.75;1777098;80;23064;-82
2022/04/17 06:40:21;;;;;;;;;;;;;;;4.74;100.00;99340.59;1774535;80;26036;-82
2022/04/17 06:42:48;;;;;;;;;;;;;;;4.82;100.00;99337.29;1746536;80;24603;-83
2022/04/17 06:45:14;;;;;;;;;;;;;;;4.92;100.00;99338.69;1775616;79;20500;-82
2022/04/17 06:47:40;;;;;;;;;;;;;;;4.93;100.00;99336.50;1775497;80;24699;-82
2022/04/17 06:50:06;;;;;;;;;;;;;;;4.93;100.00;99337.79;1774084;80;20283;-85
2022/04/17 06:52:34;;;;;;;;;;;;;;;4.99;100.00;99332.41;1771947;80;21591;-83
2022/04/17 06:55:00;;;;;;;;;;;;;;;4.97;100.00;99336.78;1773505;79;24475;-83
2022/04/17 06:57:30;;;;;;;;;;;;;;;4.99;100.00;99332.41;1734030;80;20299;-82
2022/04/17 06:59:57;;;;;;;;;;;;;;;5.07;100.00;99329.13;1773954;80;24651;-83
2022/04/17 07:02:23;;;;;;;;;;;;;;;5.11;100.00;99341.09;1775702;80;22084;-83
2022/04/17 07:04:49;;;;;;;;;;;;;;;5.13;100.00;99330.19;1772170;80;26056;-87
2022/04/17 07:07:15;;;;;;;;;;;;;;;5.20;100.00;99331.69;1777324;80;20307;-86
2022/04/17 07:09:41;;;;;;;;;;;;;;;5.17;100.00;99335.70;1774706;80;20861;-87
2022/04/17 07:12:07;;;;;;;;;;;;;;;5.21;100.00;99332.54;1745874;80;24566;-87
2022/04/17 07:14:33;;;;;;;;;;;;;;;5.19;100.00;99323.50;1777279;80;22041;-83
2022/04/17 07:16:59;;;;;;;;;;;;;;;5.23;100.00;99321.22;1777160;80;20948;-87
2022/04/17 07:19:25;;;;;;;;;;;;;;;5.28;100.00;99323.66;1771060;80;24428;-83
2022/04/17 07:21:51;;;;;;;;;;;;;;;5.20;100.00;99326.50;1776408;80;20460;-84
2022/04/17 07:24:17;;;;;;;;;;;;;;;5.21;100.00;99332.09;1773947;80;24558;-83
2022/04/17 07:26:43;;;;;;;;;;;;;;;5.25;100.00;99320.70;1771265;80;20247;-84
2022/04/17 07:29:09;;;;;;;;;;;;;;;5.28;100.00;99323.66;1773633;80;21114;-84
2022/04/17 07:31:35;;;;;;;;;;;;;;;5.28;100.00;99323.66;1776312;80;24370;-84
2022/04/17 07:34:01;;;;;;;;;;;;;;;5.30;100.00;99318.80;1777931;80;20138;-83
2022/04/17 07:36:27;;;;;;;;;;;;;;;5.38;100.00;99328.47;1770184;80;20764;-84
2022/04/17 07:38:53;;;;;;;;;;;;;;;5.45;100.00;99329.94;1772099;80;21948;-85
2022/04/17 07:41:19;;;;;;;;;;;;;;;5.50;100.00;99332.39;1770940;80;26054;-84
2022/04/17 07:43:45;;;;;;;;;;;;;;;5.48;100.00;99326.40;1773340;80;24480;-86
2022/04/17 07:46:11;;;;;;;;;;;;;;;5.36;100.00;99325.08;1779129;80;20288;-85
2022/04/17 07:48:38;;;;;;;;;;;;;;;5.53;100.00;99322.34;1775694;80;20236;-87
2022/04/17 07:51:04;;;;;;;;;;;;;;;5.64;100.00;99318.47;1778056;80;22063;-87
2022/04/17 07:53:31;;;;;;;;;;;;;;;5.80;100.00;99314.86;1779483;80;21164;-85
2022/04/17 07:55:57;;;;;;;;;;;;;;;5.86;100.00;99308.99;1772794;80;24046;-84
2022/04/17 07:58:34;;;;;;;;;;;;;;;5.89;100.00;99309.38;1775602;80;20894;-83
2022/04/17 08:00:57;;;;;;;;;;;;;;;5.92;100.00;99308.41;1775489;80;24547;-85
2022/04/17 08:03:35;;;;;;;;;;;;;;;5.88;100.00;99305.94;1777327;80;22010;-84
2022/04/17 08:05:53;;;;;;;;;;;;;;;5.88;100.00;99300.73;1775121;80;26053;-84
2022/04/17 08:08:19;;;;;;;;;;;;;;;6.01;100.00;99300.26;1776925;80;20388;-86
2022/04/17 08:10:46;;;;;;;;;;;;;;;6.16;100.00;99298.41;1777535;80;20451;-84
2022/04/17 08:13:12;;;;;;;;;;;;;;;6.27;100.00;99291.86;1778767;80;24511;-83
2022/04/17 08:15:42;;;;;;;;;;;;;;;6.40;100.00;99294.84;1775804;80;20248;-83
2022/04/17 08:18:08;;;;;;;;;;;;;;;6.50;100.00;99294.02;1775569;80;26250;-82
2022/04/17 08:20:34;;;;;;;;;;;;;;;6.59;100.00;99293.67;1774559;80;24462;-83
2022/04/17 08:23:00;;;;;;;;;;;;;;;6.63;100.00;99290.88;1775265;80;20834;-83
2022/04/17 08:25:26;;;;;;;;;;;;;;;6.66;100.00;99283.39;1770678;80;24589;-86
2022/04/17 08:27:53;;;;;;;;;;;;;;;6.68;100.00;99279.83;1776515;80;20645;-86
2022/04/17 08:30:20;;;;;;;;;;;;;;;6.74;100.00;99278.73;1777347;80;26639;-87
2022/04/17 08:32:47;;;;;;;;;;;;;;;6.89;100.00;99278.55;1776788;80;24343;-86
2022/04/17 08:35:13;;;;;;;;;;;;;;;6.88;100.00;99284.20;1770184;80;20237;-88
2022/04/17 08:37:39;;;;;;;;;;;;;;;6.84;100.00;99279.20;1767505;80;24484;-86
2022/04/17 08:40:06;;;;;;;;;;;;;;;6.91;100.00;99274.14;1759649;81;22125;-86
2022/04/17 08:42:32;;;;;;;;;;;;;;;6.95;100.00;99270.50;1761979;81;26027;-86
2022/04/17 08:44:58;;;;;;;;;;;;;;;7.01;100.00;99272.84;1763180;81;20747;-86
2022/04/17 08:47:25;;;;;;;;;;;;;;;7.05;100.00;99265.29;1767693;81;20340;-86
2022/04/17 08:49:53;;;;;;;;;;;;;;;7.12;100.00;99262.37;1763694;81;24166;-86
2022/04/17 08:52:19;;;;;;;;;;;;;;;7.19;99.58;99263.42;1760833;81;22009;-86
2022/04/17 08:54:46;;;;;;;;;;;;;;;7.17;98.50;99261.33;1760777;81;25993;-87
2022/04/17 08:57:13;;;;;;;;;;;;;;;7.18;97.58;99262.57;1763954;81;24064;-86
2022/04/17 08:59:39;;;;;;;;;;;;;;;7.14;96.52;99257.96;1761439;81;20324;-86
2022/04/17 09:02:10;;;;;;;;;;;;;;;7.04;95.25;99259.23;1761143;81;24504;-86
2022/04/17 09:04:34;;;;;;;;;;;;;;;6.95;93.97;99252.28;1765103;80;22016;-87
2022/04/17 09:07:00;;;;;;;;;;;;;;;6.84;92.72;99247.98;1762228;79;21091;-86
2022/04/17 09:09:26;;;;;;;;;;;;;;;6.81;91.79;99249.42;1761229;81;24487;-86
2022/04/17 09:11:55;;;;;;;;;;;;;;;6.78;91.01;99253.44;1763124;81;20396;-86
2022/04/17 09:14:21;;;;;;;;;;;;;;;6.78;90.55;99245.17;1763303;81;24704;-87
2022/04/17 09:16:51;;;;;;;;;;;;;;;6.83;90.32;99249.73;1764792;81;20838;-87
2022/04/17 09:19:18;;;;;;;;;;;;;;;6.87;89.95;99249.17;1762238;81;26005;-87
2022/04/17 09:21:45;;;;;;;;;;;;;;;6.94;89.66;99247.53;1761187;81;24461;-87
2022/04/17 09:24:16;;;;;;;;;;;;;;;6.94;89.25;99243.62;1764510;81;20283;-87
2022/04/17 09:26:49;;;;;;;;;;;;;;;6.98;89.02;99243.06;1758977;81;24530;-87
2022/04/17 09:29:23;;;;;;;;;;;;;;;7.03;88.85;99236.75;1758765;80;22085;-87
2022/04/17 09:31:58;;;;;;;;;;;;;;;7.18;89.05;99226.58;1755477;81;26674;-87
2022/04/17 09:34:25;;;;;;;;;;;;;;;7.46;89.45;99229.67;1761328;80;24692;-86
2022/04/17 09:36:58;;;;;;;;;;;;;;;7.68;89.79;99216.07;1763845;81;20223;-87
2022/04/17 09:39:29;;;;;;;;;;;;;;;7.77;89.51;99218.24;1767348;80;24744;-87
2022/04/17 09:41:56;;;;;;;;;;;;;;;7.95;89.58;99213.95;1768165;80;21995;-87
2022/04/17 09:44:47;;;;;;;;;;;;;;;8.08;89.52;99216.80;1773349;80;26062;-87
2022/04/17 09:47:17;;;;;;;;;;;;;;;8.27;89.55;99216.33;1773429;80;24549;-87
2022/04/17 09:49:53;;;;;;;;;;;;;;;8.37;89.11;99210.63;1768017;80;20376;-87
2022/04/17 09:52:19;;;;;;;;;;;;;;;8.38;88.06;99207.56;1765434;80;25241;-85
2022/04/17 09:54:47;;;;;;;;;;;;;;;8.58;87.79;99202.20;1773068;80;21951;-87
2022/04/17 09:57:15;;;;;;;;;;;;;;;8.72;87.76;99202.38;1771731;80;26673;-87
2022/04/17 09:59:41;;;;;;;;;;;;;;;8.78;87.52;99202.05;1765793;79;24510;-84
2022/04/17 10:02:09;;;;;;;;;;;;;;;8.62;86.33;99198.52;1769155;80;20267;-85
2022/04/17 10:04:36;;;;;;;;;;;;;;;8.46;84.66;99197.59;1769624;80;24603;-84
2022/04/17 10:07:06;;;;;;;;;;;;;;;8.49;83.59;99187.48;1769987;80;22735;-84
2022/04/17 10:09:32;;;;;;;;;;;;;;;8.51;82.42;99190.38;1770479;80;26011;-85
2022/04/17 10:11:59;;;;;;;;;;;;;;;8.52;81.22;99193.37;1771947;80;20311;-85
2022/04/17 10:14:32;;;;;;;;;;;;;;;8.59;80.13;99184.80;1772337;80;20495;-83
2022/04/17 10:16:58;;;;;;;;;;;;;;;8.67;79.22;99187.39;1777572;80;24707;-83
2022/04/17 10:19:25;;;;;;;;;;;;;;;8.85;78.95;99176.95;1758184;79;22185;-83
2022/04/17 10:21:51;;;;;;;;;;;;;;;8.99;78.74;99182.33;1748468;80;25966;-83
2022/04/17 10:24:18;;;;;;;;;;;;;;;8.96;77.84;99174.63;1755369;80;24531;-84
2022/04/17 10:26:45;;;;;;;;;;;;;;;8.89;76.75;99174.59;1774678;80;20174;-82
2022/04/17 10:29:13;;;;;;;;;;;;;;;8.73;75.46;99170.58;1770114;80;24541;-83
2022/04/17 10:31:58;;;;;;;;;;;;;;;8.50;74.07;99180.04;1770858;80;22151;-83
2022/04/17 10:34:33;;;;;;;;;;;;;;;8.34;72.68;99177.34;1765903;79;26102;-83
2022/04/17 10:37:09;;;;;;;;;;;;;;;8.34;71.75;99177.34;1746336;79;24415;-83
2022/04/17 10:39:40;;;;;;;;;;;;;;;8.45;71.19;99167.23;1746195;79;20224;-82
2022/04/17 10:42:09;;;;;;;;;;;;;;;8.39;70.32;99165.77;1729144;80;24700;-82
2022/04/17 10:44:41;;;;;;;;;;;;;;;8.31;69.31;99156.62;1737992;80;21949;-82
2022/04/17 10:47:06;;;;;;;;;;;;;;;8.31;68.67;99158.77;1737060;80;26051;-83
2022/04/17 10:49:34;;;;;;;;;;;;;;;8.31;68.02;99154.86;1724716;80;24533;-83
2022/04/17 10:52:00;;;;;;;;;;;;;;;8.27;67.29;99151.98;1727247;80;20304;-85
2022/04/17 10:54:28;;;;;;;;;;;;;;;8.33;66.74;99148.27;1723387;80;24493;-83
2022/04/17 10:56:56;;;;;;;;;;;;;;;8.47;66.37;99145.81;1728469;80;21977;-83
2022/04/17 10:59:24;;;;;;;;;;;;;;;8.46;65.72;99142.81;1732073;80;26083;-83
2022/04/17 11:01:54;;;;;;;;;;;;;;;8.39;64.96;99142.75;1730037;80;24423;-82
2022/04/17 11:04:25;;;;;;;;;;;;;;;8.38;64.35;99142.36;1739107;80;20209;-83
2022/04/17 11:06:54;;;;;;;;;;;;;;;8.35;63.71;99138.13;1737832;80;24573;-83
2022/04/17 11:09:22;;;;;;;;;;;;;;;8.35;63.07;99134.67;1729216;80;22084;-83
2022/04/17 11:11:48;;;;;;;;;;;;;;;8.36;62.50;99135.91;1738519;80;25993;-83
2022/04/17 11:14:18;;;;;;;;;;;;;;;8.47;62.30;99130.16;1742946;80;24455;-83
2022/04/17 11:16:51;;;;;;;;;;;;;;;8.63;62.52;99130.22;1733700;80;20300;-83
2022/04/17 11:19:18;;;;;;;;;;;;;;;8.76;62.80;99119.09;1740345;80;25310;-83
2022/04/17 11:21:45;;;;;;;;;;;;;;;8.85;62.90;99123.44;1732194;80;22557;-83
2022/04/17 11:24:11;;;;;;;;;;;;;;;8.90;62.92;99118.36;1738523;80;26077;-83
2022/04/17 11:26:39;;;;;;;;;;;;;;;9.02;63.06;99116.88;1726813;80;24585;-83
2022/04/17 11:29:11;;;;;;;;;;;;;;;9.12;63.23;99108.94;1701070;80;20318;-83
2022/04/17 11:31:37;;;;;;;;;;;;;;;9.15;63.19;99103.58;1742057;80;24612;-83
2022/04/17 11:34:03;;;;;;;;;;;;;;;9.11;62.86;99095.05;1744061;80;20291;-83
2022/04/17 11:36:30;;;;;;;;;;;;;;;9.05;62.39;99098.47;1742143;80;26850;-83
2022/04/17 11:38:58;;;;;;;;;;;;;;;9.10;62.14;99097.76;1728475;80;24451;-83
2022/04/17 11:41:26;;;;;;;;;;;;;;;9.21;62.04;99088.43;1725870;80;20158;-83
2022/04/17 11:43:59;;;;;;;;;;;;;;;9.23;61.47;99087.02;1729450;82;25003;-83
2022/04/17 11:46:25;;;;;;;;;;;;;;;9.35;61.22;99079.83;1721455;80;22864;-83
2022/04/17 11:48:53;;;;;;;;;;;;;;;9.40;60.83;99076.96;1726875;80;21104;-86
2022/04/17 11:51:20;;;;;;;;;;;;;;;9.39;60.24;99076.12;1728240;82;24474;-87
2022/04/17 11:53:46;;;;;;;;;;;;;;;9.47;59.83;99075.25;1725834;82;20245;-87
2022/04/17 11:56:12;;;;;;;;;;;;;;;9.44;59.24;99074.55;1727810;82;24543;-87
2022/04/17 11:58:38;;;;;;;;;;;;;;;9.44;58.91;99070.17;1724410;82;20228;-87
2022/04/17 12:01:05;;;;;;;;;;;;;;;9.48;58.78;99071.72;1729697;80;21057;-87
2022/04/17 12:03:34;;;;;;;;;;;;;;;9.57;58.67;99069.89;1729758;80;24503;-87
2022/04/17 12:06:03;;;;;;;;;;;;;;;9.57;58.38;99068.58;1722336;82;20188;-87
2022/04/17 12:08:34;;;;;;;;;;;;;;;9.46;57.77;99060.95;1720992;81;25892;-87
2022/04/17 12:11:01;;;;;;;;;;;;;;;9.51;57.66;99065.45;1719535;82;22014;-87
2022/04/17 12:13:28;;;;;;;;;;;;;;;9.55;57.47;99055.20;1728148;82;26019;-87
2022/04/17 12:16:02;;;;;;;;;;;;;;;9.72;57.58;99063.41;1728170;82;24524;-87
2022/04/17 12:18:29;;;;;;;;;;;;;;;9.59;57.04;99057.59;1727247;82;20460;-84
2022/04/17 12:21:06;;;;;;;;;;;;;;;9.46;56.49;99049.20;1722082;81;24650;-84
2022/04/17 12:23:35;;;;;;;;;;;;;;;9.40;56.11;99047.77;1731251;80;22579;-83
2022/04/17 12:26:02;;;;;;;;;;;;;;;9.41;55.75;99046.84;1728370;82;25994;-87
2022/04/17 12:28:29;;;;;;;;;;;;;;;9.39;55.36;99043.92;1724907;82;24635;-87
2022/04/17 12:30:55;;;;;;;;;;;;;;;9.45;55.09;99039.20;1726716;82;20275;-87
2022/04/17 12:33:22;;;;;;;;;;;;;;;9.47;54.80;99034.75;1727692;81;24510;-87
2022/04/17 12:36:02;;;;;;;;;;;;;;;9.43;54.38;99039.78;1727447;82;22080;-84
2022/04/17 12:38:28;;;;;;;;;;;;;;;9.47;54.22;99031.30;1670682;81;26001;-83
2022/04/17 12:40:54;;;;;;;;;;;;;;;9.40;53.81;99025.56;1733940;80;24480;-83
2022/04/17 12:43:21;;;;;;;;;;;;;;;9.45;53.65;99019.61;1734592;82;20280;-83